sensor_id;sensor_type;location;lat;lon;timestamp;pressure;altitude;pressure_sealevel;temperature;humidity
43503;BME280;29098;48.184;16.298;2023-04-10T00:02:15;100245.66;;;5.38;100.00
43503;BME280;29098;48.184;16.298;2023-04-10T00:04:41;100245.16;;;5.44;100.00
43503;BME280;29098;48.184;16.298;2023-04-10T00:07:06;100217.91;;;5.26;100.00
43503;BME280;29098;48.184;16.298;2023-04-10T00:09:32;100215.94;;;5.39;100.00
43503;BME280;29098;48.184;16.298;2023-04-10T00:11:58;100219.69;;;5.25;100.00
43503;BME280;29098;48.184;16.298;2023-04-10T00:14:23;100236.59;;;5.42;100.00
43503;BME280;29098;48.184;16.298;2023-04-10T00:16:49;100242.34;;;5.36;100.00
43503;BME280;29098;48.184;16.298;2023-04-10T00:19:15;100226.47;;;5.28;100.00
43503;BME280;29098;48.184;16.298;2023-04-10T00:21:41;100208.78;;;5.20;100.00
43503;BME280;29098;48.184;16.298;2023-04-10T00:24:07;100241.81;;;5.42;100.00
43503;BME280;29098;48.184;16.298;2023-04-10T00:26:33;100238.84;;;5.47;100.00
43503;BME280;29098;48.184;16.298;2023-04-10T00:28:59;100237.91;;;5.48;100.00
43503;BME280;29098;48.184;16.298;2023-04-10T00:31:25;100213.72;;;5.56;100.00
43503;BME280;29098;48.184;16.298;2023-04-10T00:33:50;100224.47;;;5.41;100.00
43503;BME280;29098;48.184;16.298;2023-04-10T00:36:17;100200.66;;;5.23;100.00
43503;BME280;29098;48.184;16.298;2023-04-10T00:38:43;100232.38;;;5.30;100.00
43503;BME280;29098;48.184;16.298;2023-04-10T00:41:08;100213.97;;;5.31;100.00
43503;BME280;29098;48.184;16.298;2023-04-10T00:43:34;100220.16;;;5.52;100.00
43503;BME280;29098;48.184;16.298;2023-04-10T00:45:59;100228.44;;;5.35;100.00
43503;BME280;29098;48.184;16.298;2023-04-10T00:48:29;100225.44;;;5.40;100.00
43503;BME280;29098;48.184;16.298;2023-04-10T00:50:54;100230.88;;;5.48;100.00
43503;BME280;29098;48.184;16.298;2023-04-10T00:53:20;100231.00;;;5.47;100.00
43503;BME280;29098;48.184;16.298;2023-04-10T00:55:47;100208.78;;;5.41;100.00
43503;BME280;29098;48.184;16.298;2023-04-10T00:58:13;100216.06;;;5.38;100.00
43503;BME280;29098;48.184;16.298;2023-04-10T01:00:40;100181.25;;;5.37;100.00
43503;BME280;29098;48.184;16.298;2023-04-10T01:03:10;100227.88;;;5.53;100.00
43503;BME280;29098;48.184;16.298;2023-04-10T01:06:48;100179.44;;;5.16;100.00
43503;BME280;29098;48.184;16.298;2023-04-10T01:08:53;100216.44;;;5.33;100.00
43503;BME280;29098;48.184;16.298;2023-04-10T01:11:34;100206.56;;;5.37;100.00
43503;BME280;29098;48.184;16.298;2023-04-10T01:14:26;100197.94;;;5.25;100.00
43503;BME280;29098;48.184;16.298;2023-04-10T01:17:07;100222.94;;;5.39;100.00
43503;BME280;29098;48.184;16.298;2023-04-10T01:20:00;100219.81;;;5.45;100.00
43503;BME280;29098;48.184;16.298;2023-04-10T01:25:50;100231.38;;;5.42;100.00
43503;BME280;29098;48.184;16.298;2023-04-10T01:30:45;100216.63;;;5.41;100.00
43503;BME280;29098;48.184;16.298;2023-04-10T01:33:12;100235.66;;;5.43;100.00
43503;BME280;29098;48.184;16.298;2023-04-10T01:35:42;100219.50;;;5.38;100.00
43503;BME280;29098;48.184;16.298;2023-04-10T01:38:09;100211.38;;;5.20;100.00
43503;BME280;29098;48.184;16.298;2023-04-10T01:40:37;100195.69;;;5.20;100.00
43503;BME280;29098;48.184;16.298;2023-04-10T01:43:05;100228.69;;;5.32;100.00
43503;BME280;29098;48.184;16.298;2023-04-10T01:45:33;100232.13;;;5.33;100.00
43503;BME280;29098;48.184;16.298;2023-04-10T01:47:59;100219.22;;;5.20;100.00
43503;BME280;29098;48.184;16.298;2023-04-10T01:50:26;100236.19;;;5.26;100.00
43503;BME280;29098;48.184;16.298;2023-04-10T01:52:53;100234.06;;;5.52;100.00
43503;BME280;29098;48.184;16.298;2023-04-10T01:55:20;100239.84;;;5.34;100.00
43503;BME280;29098;48.184;16.298;2023-04-10T01:57:46;100214.38;;;5.15;100.00
43503;BME280;29098;48.184;16.298;2023-04-10T02:00:14;100219.50;;;5.17;100.00
43503;BME280;29098;48.184;16.298;2023-04-10T02:02:40;100228.50;;;5.24;100.00
43503;BME280;29098;48.184;16.298;2023-04-10T02:05:07;100240.66;;;5.35;100.00
43503;BME280;29098;48.184;16.298;2023-04-10T02:08:00;100220.75;;;5.23;100.00
43503;BME280;29098;48.184;16.298;2023-04-10T02:13:06;100234.41;;;5.26;100.00
43503;BME280;29098;48.184;16.298;2023-04-10T02:15:32;100214.06;;;5.09;100.00
43503;BME280;29098;48.184;16.298;2023-04-10T02:17:59;100227.47;;;5.04;100.00
43503;BME280;29098;48.184;16.298;2023-04-10T02:20:29;100214.06;;;5.09;100.00
43503;BME280;29098;48.184;16.298;2023-04-10T02:22:57;100241.41;;;5.26;100.00
43503;BME280;29098;48.184;16.298;2023-04-10T02:25:26;100211.06;;;5.13;100.00
43503;BME280;29098;48.184;16.298;2023-04-10T02:27:52;100189.00;;;5.06;100.00
43503;BME280;29098;48.184;16.298;2023-04-10T02:30:17;100222.69;;;5.20;100.00
43503;BME280;29098;48.184;16.298;2023-04-10T02:32:43;100210.34;;;5.11;100.00
43503;BME280;29098;48.184;16.298;2023-04-10T02:35:08;100218.56;;;5.06;100.00
43503;BME280;29098;48.184;16.298;2023-04-10T02:37:34;100183.41;;;4.99;100.00
43503;BME280;29098;48.184;16.298;2023-04-10T02:40:00;100222.13;;;5.05;100.00
43503;BME280;29098;48.184;16.298;2023-04-10T02:42:25;100199.63;;;4.93;100.00
43503;BME280;29098;48.184;16.298;2023-04-10T02:44:51;100217.28;;;5.01;100.00
43503;BME280;29098;48.184;16.298;2023-04-10T02:47:16;100214.50;;;5.14;100.00
43503;BME280;29098;48.184;16.298;2023-04-10T02:49:42;100244.91;;;5.15;100.00
43503;BME280;29098;48.184;16.298;2023-04-10T02:52:08;100227.72;;;5.01;100.00
43503;BME280;29098;48.184;16.298;2023-04-10T02:54:33;100206.94;;;4.99;100.00
43503;BME280;29098;48.184;16.298;2023-04-10T02:56:59;100211.59;;;4.96;100.00
43503;BME280;29098;48.184;16.298;2023-04-10T02:59:26;100217.19;;;4.91;100.00
43503;BME280;29098;48.184;16.298;2023-04-10T03:01:51;100228.16;;;5.17;100.00
43503;BME280;29098;48.184;16.298;2023-04-10T03:04:17;100205.88;;;5.02;100.00
43503;BME280;29098;48.184;16.298;2023-04-10T03:06:43;100193.56;;;4.92;100.00
43503;BME280;29098;48.184;16.298;2023-04-10T03:09:09;100200.69;;;4.90;100.00
43503;BME280;29098;48.184;16.298;2023-04-10T03:11:34;100213.97;;;4.99;100.00
43503;BME280;29098;48.184;16.298;2023-04-10T03:14:00;100212.53;;;5.06;100.00
43503;BME280;29098;48.184;16.298;2023-04-10T03:16:25;100190.09;;;4.92;100.00
43503;BME280;29098;48.184;16.298;2023-04-10T03:18:52;100214.56;;;5.02;100.00
43503;BME280;29098;48.184;16.298;2023-04-10T03:21:18;100208.97;;;4.96;100.00
43503;BME280;29098;48.184;16.298;2023-04-10T03:23:43;100199.63;;;4.93;100.00
43503;BME280;29098;48.184;16.298;2023-04-10T03:26:09;100196.16;;;4.92;100.00
43503;BME280;29098;48.184;16.298;2023-04-10T03:28:34;100176.13;;;4.82;100.00
43503;BME280;29098;48.184;16.298;2023-04-10T03:31:02;100186.09;;;4.88;100.00
43503;BME280;29098;48.184;16.298;2023-04-10T03:33:28;100217.53;;;4.98;100.00
43503;BME280;29098;48.184;16.298;2023-04-10T03:35:53;100193.19;;;4.97;100.00
43503;BME280;29098;48.184;16.298;2023-04-10T03:38:19;100237.72;;;4.96;100.00
43503;BME280;29098;48.184;16.298;2023-04-10T03:40:44;100197.50;;;4.87;100.00
43503;BME280;29098;48.184;16.298;2023-04-10T03:43:10;100205.59;;;4.72;100.00
43503;BME280;29098;48.184;16.298;2023-04-10T03:45:35;100199.56;;;4.60;100.00
43503;BME280;29098;48.184;16.298;2023-04-10T03:48:01;100200.50;;;4.71;100.00
43503;BME280;29098;48.184;16.298;2023-04-10T03:50:26;100205.72;;;4.71;100.00
43503;BME280;29098;48.184;16.298;2023-04-10T03:52:52;100200.16;;;4.52;100.00
43503;BME280;29098;48.184;16.298;2023-04-10T03:55:17;100217.13;;;4.58;100.00
43503;BME280;29098;48.184;16.298;2023-04-10T03:57:47;100205.75;;;4.59;100.00
43503;BME280;29098;48.184;16.298;2023-04-10T04:00:14;100211.69;;;4.61;100.00
43503;BME280;29098;48.184;16.298;2023-04-10T04:02:40;100204.16;;;4.68;100.00
43503;BME280;29098;48.184;16.298;2023-04-10T04:05:05;100203.50;;;4.55;100.00
43503;BME280;29098;48.184;16.298;2023-04-10T04:07:31;100209.66;;;4.65;100.00
43503;BME280;29098;48.184;16.298;2023-04-10T04:09:57;100206.13;;;4.55;100.00
43503;BME280;29098;48.184;16.298;2023-04-10T04:12:22;100234.47;;;4.59;100.00
43503;BME280;29098;48.184;16.298;2023-04-10T04:14:47;100240.78;;;4.57;100.00
43503;BME280;29098;48.184;16.298;2023-04-10T04:17:13;100209.31;;;4.47;100.00
43503;BME280;29098;48.184;16.298;2023-04-10T04:19:39;100222.13;;;4.61;100.00
43503;BME280;29098;48.184;16.298;2023-04-10T04:22:04;100228.38;;;4.82;100.00
43503;BME280;29098;48.184;16.298;2023-04-10T04:24:30;100240.16;;;4.64;100.00
43503;BME280;29098;48.184;16.298;2023-04-10T04:26:56;100237.78;;;4.61;100.00
43503;BME280;29098;48.184;16.298;2023-04-10T04:29:21;100234.00;;;4.54;100.00
43503;BME280;29098;48.184;16.298;2023-04-10T04:31:47;100217.03;;;4.48;100.00
43503;BME280;29098;48.184;16.298;2023-04-10T04:34:14;100247.31;;;4.51;100.00
43503;BME280;29098;48.184;16.298;2023-04-10T04:36:40;100203.25;;;4.46;100.00
43503;BME280;29098;48.184;16.298;2023-04-10T04:39:05;100185.47;;;4.29;100.00
43503;BME280;29098;48.184;16.298;2023-04-10T04:41:31;100235.19;;;4.61;100.00
43503;BME280;29098;48.184;16.298;2023-04-10T04:43:58;100214.28;;;4.50;100.00
43503;BME280;29098;48.184;16.298;2023-04-10T04:46:25;100225.69;;;4.49;100.00
43503;BME280;29098;48.184;16.298;2023-04-10T04:48:51;100214.19;;;4.40;100.00
43503;BME280;29098;48.184;16.298;2023-04-10T04:51:16;100218.81;;;4.59;100.00
43503;BME280;29098;48.184;16.298;2023-04-10T04:53:42;100261.41;;;4.60;100.00
43503;BME280;29098;48.184;16.298;2023-04-10T04:56:07;100263.19;;;4.71;100.00
43503;BME280;29098;48.184;16.298;2023-04-10T04:58:33;100245.03;;;4.46;100.00
43503;BME280;29098;48.184;16.298;2023-04-10T05:00:59;100245.97;;;4.45;100.00
43503;BME280;29098;48.184;16.298;2023-04-10T05:03:25;100236.88;;;4.51;100.00
43503;BME280;29098;48.184;16.298;2023-04-10T05:05:52;100268.88;;;4.64;100.00
43503;BME280;29098;48.184;16.298;2023-04-10T05:08:18;100269.94;;;4.62;100.00
43503;BME280;29098;48.184;16.298;2023-04-10T05:10:43;100214.19;;;4.40;100.00
43503;BME280;29098;48.184;16.298;2023-04-10T05:13:09;100209.19;;;4.37;100.00
43503;BME280;29098;48.184;16.298;2023-04-10T05:15:35;100258.22;;;4.68;100.00
43503;BME280;29098;48.184;16.298;2023-04-10T05:18:00;100204.31;;;4.66;100.00
43503;BME280;29098;48.184;16.298;2023-04-10T05:20:25;100262.81;;;4.75;100.00
43503;BME280;29098;48.184;16.298;2023-04-10T05:22:51;100212.84;;;4.69;100.00
43503;BME280;29098;48.184;16.298;2023-04-10T05:25:17;100239.91;;;4.79;100.00
43503;BME280;29098;48.184;16.298;2023-04-10T05:27:43;100265.06;;;4.91;100.00
43503;BME280;29098;48.184;16.298;2023-04-10T05:30:09;100261.00;;;4.99;100.00
43503;BME280;29098;48.184;16.298;2023-04-10T05:32:34;100260.53;;;4.93;100.00
43503;BME280;29098;48.184;16.298;2023-04-10T05:35:00;100231.19;;;4.90;100.00
43503;BME280;29098;48.184;16.298;2023-04-10T05:37:25;100230.72;;;4.96;100.00
43503;BME280;29098;48.184;16.298;2023-04-10T05:39:50;100212.78;;;4.91;100.00
43503;BME280;29098;48.184;16.298;2023-04-10T05:42:16;100257.47;;;5.21;100.00
43503;BME280;29098;48.184;16.298;2023-04-10T05:44:43;100251.44;;;5.20;100.00
43503;BME280;29098;48.184;16.298;2023-04-10T05:47:09;100231.44;;;5.19;100.00
43503;BME280;29098;48.184;16.298;2023-04-10T05:49:35;100280.63;;;5.37;100.00
43503;BME280;29098;48.184;16.298;2023-04-10T05:52:00;100253.13;;;5.43;100.00
43503;BME280;29098;48.184;16.298;2023-04-10T05:54:26;100263.16;;;5.59;100.00
43503;BME280;29098;48.184;16.298;2023-04-10T05:56:51;100289.56;;;5.77;100.00
43503;BME280;29098;48.184;16.298;2023-04-10T05:59:17;100285.84;;;5.91;100.00
43503;BME280;29098;48.184;16.298;2023-04-10T06:01:43;100265.13;;;5.88;100.00
43503;BME280;29098;48.184;16.298;2023-04-10T06:04:08;100283.72;;;5.85;100.00
43503;BME280;29098;48.184;16.298;2023-04-10T06:06:34;100288.69;;;5.88;100.00
43503;BME280;29098;48.184;16.298;2023-04-10T06:08:59;100290.09;;;5.92;100.00
43503;BME280;29098;48.184;16.298;2023-04-10T06:11:25;100299.78;;;6.01;99.86
43503;BME280;29098;48.184;16.298;2023-04-10T06:13:50;100276.41;;;6.21;97.85
43503;BME280;29098;48.184;16.298;2023-04-10T06:16:16;100281.97;;;6.07;98.16
43503;BME280;29098;48.184;16.298;2023-04-10T06:18:42;100282.44;;;6.00;98.66
43503;BME280;29098;48.184;16.298;2023-04-10T06:21:07;100280.88;;;6.09;98.38
43503;BME280;29098;48.184;16.298;2023-04-10T06:23:33;100302.47;;;6.33;97.81
43503;BME280;29098;48.184;16.298;2023-04-10T06:25:59;100294.38;;;6.36;97.46
43503;BME280;29098;48.184;16.298;2023-04-10T06:28:25;100305.59;;;6.48;97.04
43503;BME280;29098;48.184;16.298;2023-04-10T06:30:51;100315.34;;;6.46;97.27
43503;BME280;29098;48.184;16.298;2023-04-10T06:33:16;100297.34;;;6.52;97.01
43503;BME280;29098;48.184;16.298;2023-04-10T06:35:42;100281.97;;;6.38;97.36
43503;BME280;29098;48.184;16.298;2023-04-10T06:38:08;100273.72;;;6.42;96.71
43503;BME280;29098;48.184;16.298;2023-04-10T06:40:33;100308.47;;;6.44;97.59
43503;BME280;29098;48.184;16.298;2023-04-10T06:42:59;100293.41;;;6.37;97.51
43503;BME280;29098;48.184;16.298;2023-04-10T06:45:25;100291.22;;;6.42;97.21
43503;BME280;29098;48.184;16.298;2023-04-10T06:47:51;100319.69;;;6.56;96.99
43503;BME280;29098;48.184;16.298;2023-04-10T06:50:16;100316.81;;;6.60;96.98
43503;BME280;29098;48.184;16.298;2023-04-10T06:52:43;100303.44;;;6.63;97.09
43503;BME280;29098;48.184;16.298;2023-04-10T06:55:09;100330.53;;;6.83;97.03
43503;BME280;29098;48.184;16.298;2023-04-10T06:57:34;100316.19;;;6.77;96.57
43503;BME280;29098;48.184;16.298;2023-04-10T07:00:00;100332.63;;;6.89;96.29
43503;BME280;29098;48.184;16.298;2023-04-10T07:02:26;100320.53;;;6.98;95.48
43503;BME280;29098;48.184;16.298;2023-04-10T07:04:51;100311.44;;;7.02;95.48
43503;BME280;29098;48.184;16.298;2023-04-10T07:07:17;100314.03;;;7.02;95.37
43503;BME280;29098;48.184;16.298;2023-04-10T07:09:43;100306.06;;;7.04;95.22
43503;BME280;29098;48.184;16.298;2023-04-10T07:12:09;100324.84;;;7.19;94.99
43503;BME280;29098;48.184;16.298;2023-04-10T07:14:35;100316.88;;;7.30;94.94
43503;BME280;29098;48.184;16.298;2023-04-10T07:17:00;100342.31;;;7.59;92.87
43503;BME280;29098;48.184;16.298;2023-04-10T07:19:26;100294.78;;;7.43;93.11
43503;BME280;29098;48.184;16.298;2023-04-10T07:21:52;100322.81;;;7.52;93.51
43503;BME280;29098;48.184;16.298;2023-04-10T07:24:17;100323.25;;;7.47;93.12
43503;BME280;29098;48.184;16.298;2023-04-10T07:26:44;100327.38;;;7.60;92.39
43503;BME280;29098;48.184;16.298;2023-04-10T07:29:10;100337.88;;;7.70;92.11
43503;BME280;29098;48.184;16.298;2023-04-10T07:31:35;100336.50;;;7.75;91.51
43503;BME280;29098;48.184;16.298;2023-04-10T07:34:02;100324.03;;;7.87;91.11
43503;BME280;29098;48.184;16.298;2023-04-10T07:36:28;100311.88;;;7.86;90.62
43503;BME280;29098;48.184;16.298;2023-04-10T07:38:56;100323.75;;;8.00;90.30
43503;BME280;29098;48.184;16.298;2023-04-10T07:41:22;100314.50;;;8.06;89.76
43503;BME280;29098;48.184;16.298;2023-04-10T07:43:48;100321.22;;;8.28;87.98
43503;BME280;29098;48.184;16.298;2023-04-10T07:46:14;100320.66;;;8.25;88.43
43503;BME280;29098;48.184;16.298;2023-04-10T07:48:40;100293.63;;;8.42;86.68
43503;BME280;29098;48.184;16.298;2023-04-10T07:51:05;100330.34;;;9.00;84.88
43503;BME280;29098;48.184;16.298;2023-04-10T07:53:34;100308.50;;;8.99;83.49
43503;BME280;29098;48.184;16.298;2023-04-10T07:56:00;100321.25;;;8.94;83.10
43503;BME280;29098;48.184;16.298;2023-04-10T07:58:25;100327.47;;;9.39;82.79
43503;BME280;29098;48.184;16.298;2023-04-10T08:00:51;100337.41;;;9.64;80.44
43503;BME280;29098;48.184;16.298;2023-04-10T08:03:16;100294.78;;;9.42;80.05
43503;BME280;29098;48.184;16.298;2023-04-10T08:05:42;100287.56;;;9.08;82.03
43503;BME280;29098;48.184;16.298;2023-04-10T08:08:07;100319.50;;;9.13;82.09
43503;BME280;29098;48.184;16.298;2023-04-10T08:10:35;100320.03;;;9.71;80.44
43503;BME280;29098;48.184;16.298;2023-04-10T08:13:02;100296.53;;;9.51;79.97
43503;BME280;29098;48.184;16.298;2023-04-10T08:15:27;100328.38;;;9.30;80.74
43503;BME280;29098;48.184;16.298;2023-04-10T08:17:53;100284.06;;;9.07;82.94
43503;BME280;29098;48.184;16.298;2023-04-10T08:20:18;100318.63;;;9.22;82.82
43503;BME280;29098;48.184;16.298;2023-04-10T08:22:43;100317.91;;;9.02;81.74
43503;BME280;29098;48.184;16.298;2023-04-10T08:25:09;100342.53;;;9.01;82.54
43503;BME280;29098;48.184;16.298;2023-04-10T08:27:34;100280.22;;;8.83;83.27
43503;BME280;29098;48.184;16.298;2023-04-10T08:30:00;100316.88;;;9.13;82.73
43503;BME280;29098;48.184;16.298;2023-04-10T08:32:27;100323.63;;;9.15;82.31
43503;BME280;29098;48.184;16.298;2023-04-10T08:34:53;100294.34;;;8.82;82.99
43503;BME280;29098;48.184;16.298;2023-04-10T08:37:18;100292.47;;;8.93;82.99
43503;BME280;29098;48.184;16.298;2023-04-10T08:39:45;100309.47;;;8.98;83.08
43503;BME280;29098;48.184;16.298;2023-04-10T08:42:11;100324.53;;;9.24;83.27
43503;BME280;29098;48.184;16.298;2023-04-10T08:44:37;100311.59;;;9.31;82.25
43503;BME280;29098;48.184;16.298;2023-04-10T08:47:04;100312.06;;;9.26;81.27
43503;BME280;29098;48.184;16.298;2023-04-10T08:49:40;100323.28;;;9.46;80.98
43503;BME280;29098;48.184;16.298;2023-04-10T08:52:13;100307.66;;;9.45;80.56
43503;BME280;29098;48.184;16.298;2023-04-10T08:54:40;100284.56;;;9.39;80.64
43503;BME280;29098;48.184;16.298;2023-04-10T08:57:07;100305.09;;;9.53;81.41
43503;BME280;29098;48.184;16.298;2023-04-10T08:59:38;100310.19;;;9.55;80.17
43503;BME280;29098;48.184;16.298;2023-04-10T09:02:04;100310.44;;;9.62;80.28
43503;BME280;29098;48.184;16.298;2023-04-10T09:04:30;100286.88;;;9.60;80.18
43503;BME280;29098;48.184;16.298;2023-04-10T09:06:55;100297.13;;;9.90;79.57
43503;BME280;29098;48.184;16.298;2023-04-10T09:09:21;100299.00;;;9.97;79.02
43503;BME280;29098;48.184;16.298;2023-04-10T09:14:29;100305.34;;;9.86;79.92
43503;BME280;29098;48.184;16.298;2023-04-10T09:19:41;100269.56;;;9.76;80.15
43503;BME280;29098;48.184;16.298;2023-04-10T09:22:07;100315.38;;;10.09;78.28
43503;BME280;29098;48.184;16.298;2023-04-10T09:24:40;100280.31;;;9.82;78.43
43503;BME280;29098;48.184;16.298;2023-04-10T09:27:06;100277.25;;;9.69;78.63
43503;BME280;29098;48.184;16.298;2023-04-10T09:29:42;100283.84;;;9.73;79.65
43503;BME280;29098;48.184;16.298;2023-04-10T09:32:08;100289.03;;;9.83;79.56
43503;BME280;29098;48.184;16.298;2023-04-10T09:34:36;100282.94;;;9.82;79.44
43503;BME280;29098;48.184;16.298;2023-04-10T09:37:16;100230.28;;;9.82;77.78
43503;BME280;29098;48.184;16.298;2023-04-10T09:39:44;100267.50;;;9.87;78.74
43503;BME280;29098;48.184;16.298;2023-04-10T09:42:10;100253.06;;;10.26;78.35
43503;BME280;29098;48.184;16.298;2023-04-10T09:44:38;100236.69;;;10.06;77.15
43503;BME280;29098;48.184;16.298;2023-04-10T09:49:45;100232.44;;;10.13;77.24
43503;BME280;29098;48.184;16.298;2023-04-10T09:52:21;100239.56;;;10.30;77.30
43503;BME280;29098;48.184;16.298;2023-04-10T09:54:47;100256.69;;;10.52;77.03
43503;BME280;29098;48.184;16.298;2023-04-10T09:57:17;100245.13;;;10.45;75.48
43503;BME280;29098;48.184;16.298;2023-04-10T09:59:51;100243.19;;;10.63;75.20
43503;BME280;29098;48.184;16.298;2023-04-10T10:02:18;100260.84;;;10.63;75.17
43503;BME280;29098;48.184;16.298;2023-04-10T10:04:45;100252.47;;;10.76;73.60
43503;BME280;29098;48.184;16.298;2023-04-10T10:07:15;100212.91;;;10.67;74.82
43503;BME280;29098;48.184;16.298;2023-04-10T10:09:42;100234.72;;;10.94;73.42
43503;BME280;29098;48.184;16.298;2023-04-10T10:12:10;100225.81;;;10.95;72.98
43503;BME280;29098;48.184;16.298;2023-04-10T10:17:17;100220.72;;;11.60;72.35
43503;BME280;29098;48.184;16.298;2023-04-10T10:19:52;100171.72;;;11.49;69.05
43503;BME280;29098;48.184;16.298;2023-04-10T10:22:24;100193.50;;;11.35;70.54
43503;BME280;29098;48.184;16.298;2023-04-10T10:24:49;100189.03;;;11.60;69.77
43503;BME280;29098;48.184;16.298;2023-04-10T10:27:21;100220.72;;;12.33;67.38
43503;BME280;29098;48.184;16.298;2023-04-10T10:29:48;100204.19;;;12.40;67.77
43503;BME280;29098;48.184;16.298;2023-04-10T10:32:16;100212.03;;;12.56;66.21
43503;BME280;29098;48.184;16.298;2023-04-10T10:34:43;100193.69;;;12.55;66.38
43503;BME280;29098;48.184;16.298;2023-04-10T10:37:10;100187.13;;;13.21;65.55
43503;BME280;29098;48.184;16.298;2023-04-10T10:39:55;100212.00;;;13.58;62.94
43503;BME280;29098;48.184;16.298;2023-04-10T10:45:15;100153.47;;;13.83;61.27
43503;BME280;29098;48.184;16.298;2023-04-10T10:47:45;100185.41;;;14.27;60.57
43503;BME280;29098;48.184;16.298;2023-04-10T10:50:11;100166.50;;;14.30;61.03
43503;BME280;29098;48.184;16.298;2023-04-10T10:52:42;100162.50;;;14.56;58.95
43503;BME280;29098;48.184;16.298;2023-04-10T10:58:08;100174.63;;;14.13;57.88
43503;BME280;29098;48.184;16.298;2023-04-10T11:05:54;100138.13;;;18.51;46.98
43503;BME280;29098;48.184;16.298;2023-04-10T11:11:00;100134.47;;;19.73;44.03
43503;BME280;29098;48.184;16.298;2023-04-10T11:13:27;100116.03;;;20.63;41.50
43503;BME280;29098;48.184;16.298;2023-04-10T11:15:54;100117.31;;;21.15;40.13
43503;BME280;29098;48.184;16.298;2023-04-10T11:21:19;100095.81;;;21.51;36.53
43503;BME280;29098;48.184;16.298;2023-04-10T11:31:45;100089.94;;;19.78;39.22
43503;BME280;29098;48.184;16.298;2023-04-10T11:34:11;100110.41;;;18.84;41.04
43503;BME280;29098;48.184;16.298;2023-04-10T11:36:41;100104.63;;;17.64;42.42
43503;BME280;29098;48.184;16.298;2023-04-10T11:39:14;100092.63;;;16.67;44.54
43503;BME280;29098;48.184;16.298;2023-04-10T11:41:51;100074.00;;;17.87;44.16
43503;BME280;29098;48.184;16.298;2023-04-10T11:44:31;100069.97;;;19.81;39.74
43503;BME280;29098;48.184;16.298;2023-04-10T11:46:57;100055.41;;;19.21;39.39
43503;BME280;29098;48.184;16.298;2023-04-10T11:49:30;100061.38;;;19.23;39.45
43503;BME280;29098;48.184;16.298;2023-04-10T11:51:56;100061.53;;;20.69;38.50
43503;BME280;29098;48.184;16.298;2023-04-10T11:54:24;100077.59;;;21.65;35.31
43503;BME280;29098;48.184;16.298;2023-04-10T11:57:01;100064.59;;;22.78;33.51
43503;BME280;29098;48.184;16.298;2023-04-10T11:59:28;100061.38;;;22.29;33.14
43503;BME280;29098;48.184;16.298;2023-04-10T12:02:06;100041.81;;;21.47;32.40
43503;BME280;29098;48.184;16.298;2023-04-10T12:04:32;100067.94;;;22.22;33.23
43503;BME280;29098;48.184;16.298;2023-04-10T12:06:57;100050.19;;;22.84;31.11
43503;BME280;29098;48.184;16.298;2023-04-10T12:09:23;100070.84;;;23.01;29.59
43503;BME280;29098;48.184;16.298;2023-04-10T12:11:52;100032.94;;;23.42;29.29
43503;BME280;29098;48.184;16.298;2023-04-10T12:14:22;100030.63;;;24.28;29.38
43503;BME280;29098;48.184;16.298;2023-04-10T12:16:49;100052.63;;;23.92;28.96
43503;BME280;29098;48.184;16.298;2023-04-10T12:19:15;100043.88;;;22.95;29.81
43503;BME280;29098;48.184;16.298;2023-04-10T12:21:43;100022.47;;;23.23;29.79
43503;BME280;29098;48.184;16.298;2023-04-10T12:24:09;100019.03;;;23.72;31.07
43503;BME280;29098;48.184;16.298;2023-04-10T12:26:35;100018.09;;;21.97;31.77
43503;BME280;29098;48.184;16.298;2023-04-10T12:29:01;100043.34;;;20.47;35.26
43503;BME280;29098;48.184;16.298;2023-04-10T12:31:31;100043.38;;;19.67;35.45
43503;BME280;29098;48.184;16.298;2023-04-10T12:33:58;100042.34;;;18.36;37.12
43503;BME280;29098;48.184;16.298;2023-04-10T12:36:26;100022.50;;;17.34;39.52
43503;BME280;29098;48.184;16.298;2023-04-10T12:38:58;100034.84;;;16.81;40.50
43503;BME280;29098;48.184;16.298;2023-04-10T12:41:28;100007.22;;;16.55;42.93
43503;BME280;29098;48.184;16.298;2023-04-10T12:44:08;99998.22;;;16.36;43.41
43503;BME280;29098;48.184;16.298;2023-04-10T12:46:34;99982.97;;;15.89;43.53
43503;BME280;29098;48.184;16.298;2023-04-10T12:49:13;100000.88;;;16.15;44.58
43503;BME280;29098;48.184;16.298;2023-04-10T12:54:11;100011.56;;;19.28;39.63
43503;BME280;29098;48.184;16.298;2023-04-10T12:56:50;100002.00;;;20.43;36.63
43503;BME280;29098;48.184;16.298;2023-04-10T12:59:16;100013.44;;;22.21;33.93
43503;BME280;29098;48.184;16.298;2023-04-10T13:01:42;99998.78;;;22.46;32.81
43503;BME280;29098;48.184;16.298;2023-04-10T13:04:09;100013.81;;;23.38;31.60
43503;BME280;29098;48.184;16.298;2023-04-10T13:06:45;99988.28;;;23.68;29.98
43503;BME280;29098;48.184;16.298;2023-04-10T13:09:14;99982.34;;;24.59;28.54
43503;BME280;29098;48.184;16.298;2023-04-10T13:11:41;99955.81;;;24.83;28.39
43503;BME280;29098;48.184;16.298;2023-04-10T13:14:07;99974.25;;;24.21;27.79
43503;BME280;29098;48.184;16.298;2023-04-10T13:16:33;99968.16;;;24.03;27.88
43503;BME280;29098;48.184;16.298;2023-04-10T13:18:59;99939.47;;;24.57;26.97
43503;BME280;29098;48.184;16.298;2023-04-10T13:21:25;99956.66;;;25.89;26.28
43503;BME280;29098;48.184;16.298;2023-04-10T13:23:53;99956.41;;;25.65;25.54
43503;BME280;29098;48.184;16.298;2023-04-10T13:26:18;99975.97;;;25.29;26.32
43503;BME280;29098;48.184;16.298;2023-04-10T13:28:43;99943.72;;;26.28;25.44
43503;BME280;29098;48.184;16.298;2023-04-10T13:31:09;99956.69;;;26.15;26.06